createdAt,value
2022-09-17T00:00:50.928Z,9.70
2022-09-17T00:03:17.892Z,9.70
2022-09-17T00:05:44.499Z,9.70
2022-09-17T00:08:15.056Z,9.70
2022-09-17T00:10:43.930Z,9.70
2022-09-17T00:13:11.436Z,9.70
2022-09-17T00:15:46.292Z,9.70
2022-09-17T00:18:14.606Z,9.70
2022-09-17T00:20:43.644Z,9.60
2022-09-17T00:23:11.946Z,9.60
2022-09-17T00:25:39.866Z,9.50
2022-09-17T00:28:06.437Z,9.60
2022-09-17T00:30:33.084Z,9.60
2022-09-17T00:32:59.627Z,9.70
2022-09-17T00:35:26.716Z,9.80
2022-09-17T00:37:53.872Z,9.90
2022-09-17T00:40:21.514Z,9.90
2022-09-17T00:42:48.186Z,10.00
2022-09-17T00:45:15.503Z,9.90
2022-09-17T00:48:00.679Z,9.90
2022-09-17T00:50:38.291Z,9.80
2022-09-17T00:53:06.861Z,9.70
2022-09-17T00:55:36.963Z,9.60
2022-09-17T00:58:06.906Z,9.60
2022-09-17T01:00:33.907Z,9.50
2022-09-17T01:03:00.971Z,9.50
2022-09-17T01:05:47.390Z,9.40
2022-09-17T01:08:35.687Z,9.40
2022-09-17T01:11:20.671Z,9.40
2022-09-17T01:14:02.046Z,9.30
2022-09-17T01:16:46.413Z,9.30
2022-09-17T01:19:25.062Z,9.30
2022-09-17T01:22:18.110Z,9.40
2022-09-17T01:25:00.315Z,9.40
2022-09-17T01:27:58.274Z,9.30
2022-09-17T01:30:49.810Z,9.50
2022-09-17T01:33:43.492Z,9.50
2022-09-17T01:36:19.007Z,9.60
2022-09-17T01:38:59.197Z,9.70
2022-09-17T01:41:49.934Z,9.70
2022-09-17T01:44:24.438Z,9.80
2022-09-17T01:46:57.983Z,9.80
2022-09-17T01:49:25.807Z,9.90
2022-09-17T01:51:54.733Z,9.90
2022-09-17T01:54:42.577Z,10.00
2022-09-17T01:57:18.326Z,10.00
2022-09-17T02:00:00.992Z,10.00
2022-09-17T02:02:35.649Z,9.90
2022-09-17T02:05:35.841Z,9.80
2022-09-17T02:08:05.202Z,9.70
2022-09-17T02:10:36.623Z,9.70
2022-09-17T02:13:15.526Z,9.70
2022-09-17T02:15:47.382Z,9.60
2022-09-17T02:18:27.121Z,9.70
2022-09-17T02:21:08.371Z,9.70
2022-09-17T02:23:42.039Z,9.70
2022-09-17T02:26:16.351Z,9.70
2022-09-17T02:28:55.086Z,9.70
2022-09-17T02:31:22.738Z,9.80
2022-09-17T02:33:53.948Z,9.80
2022-09-17T02:36:20.738Z,9.80
2022-09-17T02:38:47.388Z,9.80
2022-09-17T02:41:18.379Z,9.80
2022-09-17T02:44:04.512Z,9.80
2022-09-17T02:46:59.658Z,9.80
2022-09-17T02:49:54.043Z,9.80
2022-09-17T02:52:26.714Z,9.70
2022-09-17T02:55:13.339Z,9.60
2022-09-17T02:57:47.946Z,9.60
2022-09-17T03:00:18.306Z,9.40
2022-09-17T03:03:17.136Z,9.30
2022-09-17T03:05:45.437Z,9.20
2022-09-17T03:08:18.422Z,9.20
2022-09-17T03:10:45.013Z,9.10
2022-09-17T03:13:11.621Z,9.00
2022-09-17T03:15:38.482Z,9.00
2022-09-17T03:18:05.051Z,9.00
2022-09-17T03:20:31.634Z,8.90
2022-09-17T03:22:58.185Z,8.90
2022-09-17T03:25:24.782Z,9.00
2022-09-17T03:27:52.351Z,9.00
2022-09-17T03:30:19.330Z,9.00
2022-09-17T03:32:46.073Z,8.90
2022-09-17T03:35:12.691Z,8.90
2022-09-17T03:37:39.263Z,8.80
2022-09-17T03:40:06.736Z,8.70
2022-09-17T03:42:33.321Z,8.70
2022-09-17T03:44:59.968Z,8.60
2022-09-17T03:47:26.486Z,8.60
2022-09-17T03:49:53.023Z,8.50
2022-09-17T03:52:19.566Z,8.50
2022-09-17T03:54:46.126Z,8.50
2022-09-17T03:57:12.737Z,8.50
2022-09-17T03:59:39.772Z,8.50
2022-09-17T04:02:06.843Z,8.50
2022-09-17T04:04:33.682Z,8.50
2022-09-17T04:07:00.217Z,8.50
2022-09-17T04:09:26.870Z,8.60
2022-09-17T04:11:53.474Z,8.70
2022-09-17T04:14:20.039Z,8.80
2022-09-17T04:16:46.583Z,8.80
2022-09-17T04:19:13.180Z,8.90
2022-09-17T04:21:39.765Z,8.90
2022-09-17T04:24:06.433Z,8.80
2022-09-17T04:26:33.131Z,8.80
2022-09-17T04:31:27.625Z,8.80
2022-09-17T04:33:54.225Z,8.80
2022-09-17T04:41:18.609Z,8.90
2022-09-17T04:43:45.218Z,8.90
2022-09-17T04:46:11.921Z,8.90
2022-09-17T04:48:38.494Z,8.90
2022-09-17T04:51:05.600Z,9.00
2022-09-17T04:53:32.180Z,9.10
2022-09-17T04:55:58.704Z,9.10
2022-09-17T04:58:25.310Z,9.20
2022-09-17T05:03:18.946Z,9.20
2022-09-17T05:05:45.505Z,9.20
2022-09-17T05:08:12.035Z,9.20
2022-09-17T05:10:38.657Z,9.20
2022-09-17T05:13:05.370Z,9.10
2022-09-17T05:15:31.959Z,9.10
2022-09-17T05:17:58.612Z,9.10
2022-09-17T05:20:25.235Z,9.00
2022-09-17T05:22:52.545Z,8.90
2022-09-17T05:25:24.437Z,8.80
2022-09-17T05:27:52.624Z,8.80
2022-09-17T05:30:19.596Z,8.70
2022-09-17T05:32:47.012Z,8.70
2022-09-17T05:35:13.891Z,8.70
2022-09-17T05:37:40.683Z,8.70
2022-09-17T05:40:08.520Z,8.70
2022-09-17T05:42:35.510Z,8.70
2022-09-17T05:45:02.066Z,8.80
2022-09-17T05:47:28.574Z,8.80
2022-09-17T05:49:55.336Z,8.90
2022-09-17T05:52:21.994Z,8.90
2022-09-17T05:54:48.599Z,9.00
2022-09-17T05:57:15.905Z,9.10
2022-09-17T05:59:42.606Z,9.10
2022-09-17T06:02:13.643Z,9.30
2022-09-17T06:04:40.433Z,9.40
2022-09-17T06:07:09.206Z,9.50
2022-09-17T06:09:37.545Z,9.60
2022-09-17T06:12:07.361Z,9.60
2022-09-17T06:14:33.964Z,9.50
2022-09-17T06:17:00.516Z,9.50
2022-09-17T06:19:27.747Z,9.40
2022-09-17T06:21:54.431Z,9.50
2022-09-17T06:24:21.174Z,9.50
2022-09-17T06:26:47.730Z,9.50
2022-09-17T06:29:15.157Z,9.60
2022-09-17T06:31:44.585Z,9.70
2022-09-17T06:34:11.666Z,9.80
2022-09-17T06:36:38.272Z,9.90
2022-09-17T06:39:04.915Z,10.00
2022-09-17T06:41:31.526Z,10.10
2022-09-17T06:43:58.654Z,10.10
2022-09-17T06:46:25.435Z,10.10
2022-09-17T06:48:52.097Z,10.20
2022-09-17T06:51:18.789Z,10.20
2022-09-17T06:53:45.468Z,10.20
2022-09-17T06:56:12.218Z,10.10
2022-09-17T06:58:39.537Z,10.00
2022-09-17T07:01:06.175Z,9.90
2022-09-17T07:03:34.469Z,9.90
2022-09-17T07:06:01.057Z,9.80
2022-09-17T07:08:27.628Z,9.80
2022-09-17T07:10:57.666Z,9.70
2022-09-17T07:13:24.769Z,9.60
2022-09-17T07:15:59.736Z,9.70
2022-09-17T07:18:27.054Z,9.60
2022-09-17T07:20:58.413Z,9.50
2022-09-17T07:23:30.065Z,9.40
2022-09-17T07:25:58.922Z,9.30
2022-09-17T07:28:26.633Z,9.30
2022-09-17T07:30:53.543Z,9.20
2022-09-17T07:33:25.927Z,9.20
2022-09-17T07:35:53.872Z,9.20
2022-09-17T07:38:20.872Z,9.30
2022-09-17T07:40:55.871Z,9.20
2022-09-17T07:43:22.521Z,9.20
2022-09-17T07:45:49.079Z,9.20
2022-09-17T07:48:15.860Z,9.20
2022-09-17T07:50:42.390Z,9.30
2022-09-17T07:53:08.924Z,9.50
2022-09-17T07:55:35.466Z,9.70
2022-09-17T07:58:02.045Z,10.00
2022-09-17T08:00:28.588Z,10.10
2022-09-17T08:02:56.693Z,10.10
2022-09-17T08:05:24.806Z,10.10
2022-09-17T08:07:55.494Z,10.10
2022-09-17T08:10:23.206Z,10.20
2022-09-17T08:12:50.604Z,10.30
2022-09-17T08:15:17.592Z,10.50
2022-09-17T08:17:45.666Z,10.50
2022-09-17T08:20:16.260Z,10.50
2022-09-17T08:22:46.805Z,10.60
2022-09-17T08:25:16.841Z,10.80
2022-09-17T08:27:43.405Z,10.90
2022-09-17T08:30:10.269Z,11.00
2022-09-17T08:32:36.851Z,11.10
2022-09-17T08:35:03.585Z,11.10
2022-09-17T08:37:30.696Z,11.20
2022-09-17T08:39:58.228Z,11.20
2022-09-17T08:42:37.039Z,11.20
2022-09-17T08:45:10.497Z,11.30
2022-09-17T08:47:43.442Z,11.10
2022-09-17T08:50:31.154Z,11.00
2022-09-17T08:53:31.013Z,11.10
2022-09-17T08:56:19.107Z,11.30
2022-09-17T08:58:54.638Z,11.50
2022-09-17T09:01:48.825Z,11.80
2022-09-17T09:04:47.176Z,12.00
2022-09-17T09:07:39.570Z,12.10
2022-09-17T09:10:23.229Z,12.10
2022-09-17T09:12:51.895Z,12.10
2022-09-17T09:15:42.237Z,11.60
2022-09-17T09:18:29.041Z,11.50
2022-09-17T09:21:20.037Z,11.60
2022-09-17T09:23:50.036Z,11.60
2022-09-17T09:26:19.547Z,11.80
2022-09-17T09:29:17.701Z,12.00
2022-09-17T09:32:16.222Z,12.30
2022-09-17T09:34:45.071Z,12.60
2022-09-17T09:37:18.265Z,12.70
2022-09-17T09:39:47.407Z,12.50
2022-09-17T09:42:29.735Z,12.50
2022-09-17T09:45:18.470Z,12.40
2022-09-17T09:48:09.746Z,12.50
2022-09-17T09:51:15.479Z,12.40
2022-09-17T09:54:07.459Z,12.50
2022-09-17T09:56:46.387Z,12.90
2022-09-17T09:59:13.349Z,13.10
2022-09-17T10:01:42.690Z,13.10
2022-09-17T10:04:29.311Z,12.90
2022-09-17T10:07:05.760Z,12.80
2022-09-17T10:09:34.375Z,12.70
2022-09-17T10:12:08.226Z,12.50
2022-09-17T10:14:36.917Z,12.60
2022-09-17T10:17:21.633Z,12.80
2022-09-17T10:20:12.933Z,12.80
2022-09-17T10:22:42.509Z,13.10
2022-09-17T10:25:23.281Z,13.20
2022-09-17T10:27:50.214Z,13.30
2022-09-17T10:30:18.593Z,13.10
2022-09-17T10:33:14.264Z,12.90
2022-09-17T10:35:40.897Z,12.80
2022-09-17T10:38:31.621Z,13.10
2022-09-17T10:41:14.680Z,13.50
2022-09-17T10:43:42.118Z,13.70
2022-09-17T10:46:19.776Z,14.10
2022-09-17T10:49:11.171Z,14.00
2022-09-17T10:51:38.594Z,14.20
2022-09-17T10:54:31.638Z,14.20
2022-09-17T10:57:00.476Z,14.00
2022-09-17T10:59:48.064Z,14.50
2022-09-17T11:02:32.977Z,14.00
2022-09-17T11:05:33.247Z,14.10
2022-09-17T11:08:07.210Z,14.20
2022-09-17T11:11:00.128Z,14.50
2022-09-17T11:26:51.479Z,14.70
2022-09-17T12:06:15.051Z,14.70
2022-09-17T12:09:03.285Z,14.90
2022-09-17T12:11:50.692Z,13.80
2022-09-17T12:14:43.157Z,13.40
2022-09-17T12:17:15.765Z,13.30
2022-09-17T12:19:52.890Z,13.00
2022-09-17T12:22:24.015Z,12.90
2022-09-17T12:24:52.408Z,13.00
2022-09-17T12:27:47.310Z,13.30
2022-09-17T12:30:22.973Z,13.80
2022-09-17T12:33:17.791Z,14.20
2022-09-17T12:36:06.116Z,14.40
2022-09-17T12:38:57.409Z,14.20
2022-09-17T12:41:46.936Z,13.30
2022-09-17T12:47:21.483Z,12.40
2022-09-17T12:49:54.617Z,12.40
2022-09-17T12:53:09.788Z,12.00
2022-09-17T12:55:54.691Z,11.90
2022-09-17T13:01:25.890Z,11.80
2022-09-17T13:06:45.454Z,11.80
2022-09-17T13:09:53.295Z,11.40
2022-09-17T13:12:35.593Z,11.40
2022-09-17T13:15:58.164Z,11.30
2022-09-17T13:18:44.909Z,11.40
2022-09-17T13:21:36.665Z,11.60
2022-09-17T13:24:19.263Z,11.50
2022-09-17T13:26:47.058Z,11.80
2022-09-17T13:29:45.641Z,12.00
2022-09-17T13:32:38.818Z,12.20
2022-09-17T13:35:11.092Z,12.30
2022-09-17T13:37:45.602Z,12.70
2022-09-17T13:40:32.579Z,12.80
2022-09-17T13:43:06.199Z,12.90
2022-09-17T13:45:34.406Z,13.20
2022-09-17T13:48:08.063Z,13.50
2022-09-17T13:50:43.383Z,13.80
2022-09-17T13:53:12.899Z,13.70
2022-09-17T14:12:46.438Z,13.60
2022-09-17T14:15:31.468Z,13.40
2022-09-17T14:17:58.745Z,13.60
2022-09-17T14:20:26.305Z,13.60
2022-09-17T14:22:58.238Z,13.70
2022-09-17T14:25:39.866Z,13.70
2022-09-17T14:33:32.351Z,14.50
2022-09-17T14:36:10.270Z,14.60
2022-09-17T14:38:47.975Z,14.40
2022-09-17T14:41:14.466Z,14.30
2022-09-17T14:43:55.474Z,14.60
2022-09-17T14:46:29.685Z,15.10
2022-09-17T15:11:50.192Z,14.10
2022-09-17T15:14:20.721Z,14.00
2022-09-17T15:16:57.923Z,13.70
2022-09-17T15:19:38.501Z,13.60
2022-09-17T15:22:10.947Z,13.40
2022-09-17T15:25:02.410Z,13.40
2022-09-17T15:27:39.425Z,13.20
2022-09-17T15:30:17.827Z,13.10
2022-09-17T15:32:55.939Z,13.00
2022-09-17T15:35:30.433Z,13.00
2022-09-17T15:38:26.736Z,13.20
2022-09-17T15:40:53.989Z,13.10
2022-09-17T15:43:29.463Z,13.00
2022-09-17T15:45:58.196Z,13.20
2022-09-17T15:48:35.955Z,13.50
2022-09-17T15:51:04.660Z,13.60
2022-09-17T15:53:32.894Z,13.90
2022-09-17T15:56:13.040Z,13.90
2022-09-17T15:58:42.626Z,13.70
2022-09-17T16:01:18.751Z,13.40
2022-09-17T16:03:45.366Z,13.10
2022-09-17T16:06:25.458Z,13.00
2022-09-17T16:08:56.903Z,12.90
2022-09-17T16:11:31.078Z,12.90
2022-09-17T16:13:59.741Z,13.00
2022-09-17T16:16:35.188Z,13.00
2022-09-17T16:19:02.682Z,13.00
2022-09-17T16:21:29.226Z,13.10
2022-09-17T16:23:57.959Z,13.30
2022-09-17T16:26:31.348Z,13.40
2022-09-17T16:29:07.517Z,13.50
2022-09-17T16:31:34.444Z,13.50
2022-09-17T16:34:01.299Z,13.50
2022-09-17T16:36:30.903Z,13.40
2022-09-17T16:38:57.955Z,13.40
2022-09-17T16:41:24.617Z,13.40
2022-09-17T16:43:51.151Z,13.20
2022-09-17T16:46:17.771Z,13.20
2022-09-17T16:48:46.268Z,13.10
2022-09-17T16:51:13.973Z,12.90
2022-09-17T16:53:40.866Z,12.80
2022-09-17T16:56:09.321Z,12.70
2022-09-17T16:58:35.996Z,12.60
2022-09-17T17:01:11.546Z,12.60
2022-09-17T17:03:38.491Z,12.50
2022-09-17T17:06:05.779Z,11.80
2022-09-17T17:08:33.467Z,11.80
2022-09-17T17:11:00.419Z,11.00
2022-09-17T17:13:27.808Z,10.50
2022-09-17T17:15:54.660Z,10.30
2022-09-17T17:18:21.614Z,10.20
2022-09-17T17:20:48.918Z,10.10
2022-09-17T17:23:16.444Z,10.00
2022-09-17T17:25:43.773Z,10.00
2022-09-17T17:28:11.078Z,10.00
2022-09-17T17:30:38.358Z,9.90
2022-09-17T17:33:05.469Z,10.00
2022-09-17T17:35:32.438Z,10.00
2022-09-17T17:37:59.187Z,10.10
2022-09-17T17:40:26.571Z,10.20
2022-09-17T17:42:53.637Z,10.10
2022-09-17T17:45:20.438Z,10.20
2022-09-17T17:47:47.118Z,10.30
2022-09-17T17:50:15.652Z,10.30
2022-09-17T17:52:47.700Z,10.30
2022-09-17T17:55:15.484Z,10.20
2022-09-17T17:57:42.096Z,10.20
2022-09-17T18:00:10.173Z,10.20
2022-09-17T18:02:36.933Z,10.10
2022-09-17T18:05:04.635Z,10.10
2022-09-17T18:07:31.412Z,10.10
2022-09-17T18:09:58.040Z,10.10
2022-09-17T18:12:26.958Z,10.00
2022-09-17T18:14:53.750Z,10.00
2022-09-17T18:17:20.373Z,10.00
2022-09-17T18:19:46.914Z,10.10
2022-09-17T18:22:14.135Z,10.10
2022-09-17T18:24:40.666Z,10.00
2022-09-17T18:27:07.197Z,10.00
2022-09-17T18:29:33.739Z,9.90
2022-09-17T18:32:00.524Z,9.80
2022-09-17T18:34:27.246Z,9.80
2022-09-17T18:36:53.814Z,9.80
2022-09-17T18:39:57.093Z,9.80
2022-09-17T18:42:08.475Z,9.90
2022-09-17T18:44:35.175Z,9.90
2022-09-17T18:47:02.128Z,9.90
2022-09-17T18:49:28.801Z,10.00
2022-09-17T18:51:55.353Z,10.00
2022-09-17T18:54:22.356Z,10.00
2022-09-17T18:56:48.966Z,10.10
2022-09-17T18:59:15.490Z,10.10
2022-09-17T19:01:42.108Z,10.00
2022-09-17T19:04:09.937Z,10.00
2022-09-17T19:06:36.735Z,9.90
2022-09-17T19:09:04.760Z,9.70
2022-09-17T19:11:31.399Z,9.50
2022-09-17T19:13:58.133Z,9.20
2022-09-17T19:16:24.972Z,9.00
2022-09-17T19:18:51.714Z,8.80
2022-09-17T19:21:23.139Z,8.60
2022-09-17T19:23:51.835Z,8.60
2022-09-17T19:26:24.056Z,8.40
2022-09-17T19:28:55.151Z,8.40
2022-09-17T19:31:22.359Z,8.50
2022-09-17T19:33:50.438Z,8.50
2022-09-17T19:36:18.446Z,8.40
2022-09-17T19:38:45.887Z,8.40
2022-09-17T19:41:14.841Z,8.40
2022-09-17T19:43:41.891Z,8.40
2022-09-17T19:46:10.494Z,8.40
2022-09-17T19:48:37.166Z,8.40
2022-09-17T19:51:05.465Z,8.50
2022-09-17T19:53:32.978Z,8.50
2022-09-17T19:55:59.751Z,8.50
2022-09-17T19:58:26.321Z,8.50
2022-09-17T20:00:57.682Z,8.50
2022-09-17T20:03:25.580Z,8.50
2022-09-17T20:05:59.753Z,8.60
2022-09-17T20:08:26.701Z,8.60
2022-09-17T20:10:55.015Z,8.60
2022-09-17T20:13:22.964Z,8.60
2022-09-17T20:15:49.634Z,8.60
2022-09-17T20:18:18.740Z,8.50
2022-09-17T20:20:49.159Z,8.40
2022-09-17T20:23:15.716Z,8.30
2022-09-17T20:25:42.423Z,8.20
2022-09-17T20:28:09.312Z,8.20
2022-09-17T20:30:36.017Z,8.20
2022-09-17T20:33:02.566Z,8.10
2022-09-17T20:35:29.098Z,8.20
2022-09-17T20:38:51.546Z,8.20
2022-09-17T20:40:42.361Z,8.20
2022-09-17T20:43:08.879Z,8.20
2022-09-17T20:45:35.372Z,8.10
2022-09-17T20:48:02.106Z,8.20
2022-09-17T20:50:28.614Z,8.20
2022-09-17T20:52:55.144Z,8.20
2022-09-17T20:55:22.242Z,8.30
2022-09-17T20:57:48.772Z,8.40
2022-09-17T21:00:20.613Z,8.50
2022-09-17T21:02:51.700Z,8.50
2022-09-17T21:05:18.788Z,8.50
2022-09-17T21:07:45.579Z,8.60
2022-09-17T21:10:13.349Z,8.70
2022-09-17T21:12:39.905Z,8.70
2022-09-17T21:15:06.836Z,8.80
2022-09-17T21:17:33.854Z,8.90
2022-09-17T21:20:00.494Z,8.90
2022-09-17T21:22:27.323Z,9.00
2022-09-17T21:24:53.853Z,9.00
2022-09-17T21:27:20.383Z,9.00
2022-09-17T21:29:46.918Z,8.90
2022-09-17T21:32:13.448Z,9.10
2022-09-17T21:34:40.216Z,9.10
2022-09-17T21:37:06.768Z,9.10
2022-09-17T21:39:35.006Z,9.20
2022-09-17T21:42:01.619Z,9.20
2022-09-17T21:44:28.199Z,9.20
2022-09-17T21:46:57.434Z,9.10
2022-09-17T21:49:24.933Z,9.20
2022-09-17T21:51:51.930Z,9.20
2022-09-17T21:54:18.762Z,9.20
2022-09-17T21:56:46.119Z,9.20
2022-09-17T21:59:14.678Z,9.10
2022-09-17T22:01:47.282Z,9.10
2022-09-17T22:04:16.739Z,9.00
2022-09-17T22:06:44.700Z,8.90
2022-09-17T22:09:18.786Z,8.90
2022-09-17T22:11:45.589Z,8.90
2022-09-17T22:14:19.299Z,9.00
2022-09-17T22:16:48.866Z,9.00
2022-09-17T22:19:17.849Z,9.00
2022-09-17T22:21:47.208Z,9.00
2022-09-17T22:24:16.037Z,9.00
2022-09-17T22:26:45.322Z,9.00
2022-09-17T22:29:17.561Z,9.00
2022-09-17T22:31:45.787Z,9.00
2022-09-17T22:34:15.353Z,9.00
2022-09-17T22:36:42.135Z,9.00
2022-09-17T22:39:09.873Z,9.10
2022-09-17T22:41:42.657Z,9.10
2022-09-17T22:44:12.770Z,9.10
2022-09-17T22:46:40.093Z,9.20
2022-09-17T22:49:08.565Z,9.20
2022-09-17T22:51:35.559Z,9.20
2022-09-17T22:54:02.171Z,9.10
2022-09-17T22:56:29.439Z,9.20
2022-09-17T22:58:57.538Z,9.20
2022-09-17T23:01:28.781Z,9.30
2022-09-17T23:03:56.278Z,9.30
2022-09-17T23:06:25.835Z,9.30
2022-09-17T23:08:52.773Z,9.30
2022-09-17T23:11:28.422Z,9.30
2022-09-17T23:14:02.031Z,9.30
2022-09-17T23:16:29.466Z,9.30
2022-09-17T23:18:57.055Z,9.30
2022-09-17T23:21:23.631Z,9.40
2022-09-17T23:23:50.889Z,9.40
2022-09-17T23:26:20.704Z,9.40
2022-09-17T23:28:47.627Z,9.30
2022-09-17T23:31:16.846Z,9.40
2022-09-17T23:33:44.092Z,9.40
2022-09-17T23:36:13.136Z,9.40
2022-09-17T23:38:41.682Z,9.40
2022-09-17T23:41:14.757Z,9.40
2022-09-17T23:43:43.302Z,9.40
2022-09-17T23:46:10.220Z,9.40
2022-09-17T23:48:37.392Z,9.40
2022-09-17T23:51:05.019Z,9.40
2022-09-17T23:53:34.114Z,9.40
2022-09-17T23:56:01.321Z,9.40
2022-09-17T23:58:32.519Z,9.40
